メインページ
METAR-TAF:

METAR-TAF

空港 :

ヌメア国際空港, ニューカレドニア

緯度: 22-01S, 経度: 166-13E, 海抜: 16m

現時点の気象観測

当レポートは28分前の05:00(UTC)に作成
西の風 6kt、南西から西/北西の間で変化する
気温 22°C
湿度 57%
気圧 1014 hPa
視程10km以上
高度7000ftの千切れ雲あり

METAR: NWWW 200500Z AUTO 27006KT 230V300 9999 BKN070 22/13 Q1014 NOSIG

時間: 16:28 (05:28 UTC)

予報

当レポートは6時間28分前の23:00(UTC)に作成
予報は20日の 00時(UTC)から 20日の 24時(UTC)まで有効
南西の風 10kt
視程10km以上
高度3000ftの雲はほとんどない
高度4500ftの雲は散在している

TAF: NWWW 192300Z 2000/2024 23010KT 9999 FEW030 SCT045

4,000以上の空港の気象観測と天気予報(METAR報とTAF報)

利用可能な観測所は地図上に黄色い丸と赤い丸で示す。

丸の上にカーソルを重ねると観測所名を参照できる。

次にクリックすると気象観測と天気予報を参照できる。

マップの切り替え:黒色「×」印の緑ボタンをクリックして拡大、「-」印の緑ボタンをクリックして縮小、緑色の三角印をクリックして隣りの地図に切り替え


METAR-TAF: